Time;durP1;ratioP1;P1;durP2;ratioP2;P2;SDS_P1;SDS_P2;PMS_P1;PMS_P2;Temp;Humidity;BMP_temperature;BMP_pressure;BME280_temperature;BME280_humidity;BME280_pressure;Samples;Min_cycle;Max_cycle;Signal;HPM_P1;HPM_P2
2021/11/25 00:01:13;;;;;;;;;;;;;;;0.68;73.50;98323.09;1677760;84;26040;-84
2021/11/25 00:03:39;;;;;;;;;;;;;;;0.60;73.52;98319.93;1693111;83;20272;-84
2021/11/25 00:06:05;;;;;;;;;;;;;;;0.59;73.55;98313.94;1696492;83;20803;-84
2021/11/25 00:08:31;;;;;;;;;;;;;;;0.62;73.59;98310.41;1698167;83;20205;-84
2021/11/25 00:10:57;;;;;;;;;;;;;;;0.77;73.67;98305.59;1697456;83;22036;-84
2021/11/25 00:13:26;;;;;;;;;;;;;;;0.92;73.74;98308.13;1683245;83;21931;-84
2021/11/25 00:15:51;;;;;;;;;;;;;;;0.97;73.80;98311.39;1698596;83;24373;-84
2021/11/25 00:18:18;;;;;;;;;;;;;;;0.96;73.86;98305.84;1698885;83;20405;-84
2021/11/25 00:20:45;;;;;;;;;;;;;;;0.94;73.88;98294.73;1691708;83;24840;-84
2021/11/25 00:23:11;;;;;;;;;;;;;;;0.82;73.86;98291.27;1686051;83;22068;-84
2021/11/25 00:25:39;;;;;;;;;;;;;;;0.77;73.85;98288.01;1655262;84;23519;-84
2021/11/25 00:28:05;;;;;;;;;;;;;;;0.71;73.80;98285.67;1689034;83;20284;-84
2021/11/25 00:30:35;;;;;;;;;;;;;;;0.76;73.83;98291.03;1667125;83;20542;-84
2021/11/25 00:33:01;;;;;;;;;;;;;;;0.74;73.85;98281.69;1688035;83;24833;-84
2021/11/25 00:35:27;;;;;;;;;;;;;;;0.67;73.84;98290.05;1688468;84;20215;-84
2021/11/25 00:37:54;;;;;;;;;;;;;;;0.62;73.81;98291.09;1688486;83;26041;-84
2021/11/25 00:40:20;;;;;;;;;;;;;;;0.67;73.85;98284.06;1700273;83;20425;-84
2021/11/25 00:42:46;;;;;;;;;;;;;;;0.62;73.87;98282.08;1686787;83;20891;-84
2021/11/25 00:45:13;;;;;;;;;;;;;;;0.60;73.89;98275.69;1677926;83;24765;-84
2021/11/25 00:47:39;;;;;;;;;;;;;;;0.71;73.94;98281.33;1664553;84;22587;-84
2021/11/25 00:50:06;;;;;;;;;;;;;;;0.82;74.01;98279.69;1703317;83;25936;-84
2021/11/25 00:52:33;;;;;;;;;;;;;;;0.72;74.02;98270.59;1667710;84;24470;-85
2021/11/25 00:54:59;;;;;;;;;;;;;;;0.67;74.03;98271.19;1693744;83;20179;-84
2021/11/25 00:57:25;;;;;;;;;;;;;;;0.68;74.03;98270.30;1686830;83;24923;-83
2021/11/25 00:59:55;;;;;;;;;;;;;;;0.70;74.06;98271.94;1696117;83;20277;-84
2021/11/25 01:02:20;;;;;;;;;;;;;;;0.68;74.08;98259.55;1682714;83;26057;-84
2021/11/25 01:04:46;;;;;;;;;;;;;;;0.61;74.08;98245.63;1692088;84;24584;-83
2021/11/25 01:07:12;;;;;;;;;;;;;;;0.76;74.13;98260.59;1699147;82;20238;-84
2021/11/25 01:09:38;;;;;;;;;;;;;;;0.78;74.14;98251.06;1669478;84;25099;-83
2021/11/25 01:12:05;;;;;;;;;;;;;;;0.70;74.13;98241.48;1695473;82;21997;-83
2021/11/25 01:14:32;;;;;;;;;;;;;;;0.62;74.13;98240.44;1679932;83;25999;-83
2021/11/25 01:16:58;;;;;;;;;;;;;;;0.65;74.14;98233.08;1688185;83;24346;-84
2021/11/25 01:19:25;;;;;;;;;;;;;;;0.66;74.13;98223.14;1692553;83;20272;-84
2021/11/25 01:21:52;;;;;;;;;;;;;;;0.66;74.17;98232.16;1699775;84;24928;-84
2021/11/25 01:24:19;;;;;;;;;;;;;;;0.53;74.13;98230.91;1719199;82;20193;-84
2021/11/25 01:26:45;;;;;;;;;;;;;;;0.34;74.06;98222.48;1692220;83;21805;-84
2021/11/25 01:29:12;;;;;;;;;;;;;;;0.24;73.99;98214.66;1667010;84;20391;-84
2021/11/25 01:31:39;;;;;;;;;;;;;;;0.17;73.92;98209.31;1693506;83;20266;-84
2021/11/25 01:34:05;;;;;;;;;;;;;;;0.11;73.92;98212.08;1689317;83;25380;-84
2021/11/25 01:36:31;;;;;;;;;;;;;;;0.00;73.89;98206.45;1683395;83;22007;-84
2021/11/25 01:38:57;;;;;;;;;;;;;;;-0.13;73.88;98209.00;1698804;82;26111;-84
2021/11/25 01:41:23;;;;;;;;;;;;;;;-0.22;73.84;98204.96;1697839;83;24579;-84
2021/11/25 01:43:49;;;;;;;;;;;;;;;-0.31;73.85;98201.39;1689952;83;20335;-84
2021/11/25 01:46:17;;;;;;;;;;;;;;;-0.32;73.85;98193.72;1689138;83;20693;-84
2021/11/25 01:48:44;;;;;;;;;;;;;;;-0.25;73.88;98184.50;1697274;83;22016;-84
2021/11/25 01:51:10;;;;;;;;;;;;;;;-0.23;73.93;98189.16;1699182;84;26943;-84
2021/11/25 01:53:37;;;;;;;;;;;;;;;-0.32;73.98;98183.44;1687933;82;24449;-84
2021/11/25 01:56:07;;;;;;;;;;;;;;;-0.45;73.97;98181.26;1688199;82;20484;-84
2021/11/25 01:58:33;;;;;;;;;;;;;;;-0.46;74.00;98180.86;1687107;84;25450;-83
2021/11/25 02:01:00;;;;;;;;;;;;;;;-0.47;74.04;98179.61;1696458;82;22102;-84
2021/11/25 02:03:27;;;;;;;;;;;;;;;-0.53;74.09;98165.21;1693842;82;25988;-84
2021/11/25 02:05:54;;;;;;;;;;;;;;;-0.54;74.14;98168.66;1697096;82;24443;-84
2021/11/25 02:08:22;;;;;;;;;;;;;;;-0.45;74.19;98163.27;1677866;83;20256;-84
2021/11/25 02:10:50;;;;;;;;;;;;;;;-0.35;74.28;98156.11;1689095;82;24746;-83
2021/11/25 02:13:19;;;;;;;;;;;;;;;-0.23;74.37;98154.89;1695430;83;21832;-84
2021/11/25 02:15:45;;;;;;;;;;;;;;;-0.08;74.48;98151.83;1694525;82;25987;-84
2021/11/25 02:18:13;;;;;;;;;;;;;;;0.10;74.61;98146.55;1692854;82;25323;-84
2021/11/25 02:20:39;;;;;;;;;;;;;;;0.11;74.69;98134.89;1703078;83;20739;-84
2021/11/25 02:23:07;;;;;;;;;;;;;;;0.16;74.76;98133.05;1692408;82;24758;-84
2021/11/25 02:25:33;;;;;;;;;;;;;;;0.30;74.86;98132.56;1698520;82;22015;-84
2021/11/25 02:27:59;;;;;;;;;;;;;;;0.36;74.92;98132.36;1661769;83;25959;-83
2021/11/25 02:30:25;;;;;;;;;;;;;;;0.43;74.98;98127.85;1695741;83;20253;-84
2021/11/25 02:32:52;;;;;;;;;;;;;;;0.34;75.01;98126.41;1703304;82;20343;-83
2021/11/25 02:35:19;;;;;;;;;;;;;;;0.26;75.00;98117.69;1694392;83;24916;-84
2021/11/25 02:37:46;;;;;;;;;;;;;;;0.16;74.98;98127.05;1688432;82;22004;-84
2021/11/25 02:40:23;;;;;;;;;;;;;;;0.12;74.98;98112.59;1699403;82;26290;-84
2021/11/25 02:42:51;;;;;;;;;;;;;;;0.02;74.96;98108.64;1684234;83;24475;-84
2021/11/25 02:45:19;;;;;;;;;;;;;;;-0.08;74.95;98102.97;1697955;82;20647;-84
2021/11/25 02:47:45;;;;;;;;;;;;;;;-0.15;74.93;98098.45;1696732;83;24819;-84
2021/11/25 02:50:11;;;;;;;;;;;;;;;-0.22;74.91;98089.73;1693981;82;20820;-84
2021/11/25 02:52:41;;;;;;;;;;;;;;;-0.16;74.92;98090.34;1669573;84;26642;-84
2021/11/25 02:55:07;;;;;;;;;;;;;;;-0.13;74.97;98087.69;1681744;82;24277;-83
2021/11/25 02:57:34;;;;;;;;;;;;;;;-0.16;74.99;98086.48;1675633;84;20226;-83
2021/11/25 03:00:00;;;;;;;;;;;;;;;-0.24;74.99;98084.62;1688216;82;24869;-86
2021/11/25 03:02:26;;;;;;;;;;;;;;;-0.23;75.03;98082.90;1688117;82;22144;-84
2021/11/25 03:04:52;;;;;;;;;;;;;;;-0.18;75.06;98075.43;1690384;82;21659;-84
2021/11/25 03:07:18;;;;;;;;;;;;;;;-0.17;75.11;98078.84;1696375;82;24433;-83
2021/11/25 03:09:44;;;;;;;;;;;;;;;-0.20;75.14;98078.93;1700258;82;20316;-83
2021/11/25 03:12:10;;;;;;;;;;;;;;;-0.33;75.14;98071.23;1694826;82;20442;-83
2021/11/25 03:14:36;;;;;;;;;;;;;;;-0.35;75.15;98070.43;1699343;83;20305;-85
2021/11/25 03:17:02;;;;;;;;;;;;;;;-0.39;75.18;98073.56;1695071;82;20921;-83
2021/11/25 03:19:28;;;;;;;;;;;;;;;-0.45;75.18;98071.17;1687687;83;24678;-83
2021/11/25 03:21:54;;;;;;;;;;;;;;;-0.52;75.18;98068.39;1678513;83;20374;-85
2021/11/25 03:24:20;;;;;;;;;;;;;;;-0.57;75.17;98065.13;1695746;83;24776;-83
2021/11/25 03:26:46;;;;;;;;;;;;;;;-0.53;75.22;98057.72;1680999;84;20221;-83
2021/11/25 03:29:12;;;;;;;;;;;;;;;-0.56;75.24;98054.81;1690060;83;21015;-84
2021/11/25 03:31:38;;;;;;;;;;;;;;;-0.58;75.27;98055.30;1690602;82;20312;-84
2021/11/25 03:34:04;;;;;;;;;;;;;;;-0.64;75.27;98047.78;1704512;82;20759;-84
2021/11/25 03:36:30;;;;;;;;;;;;;;;-0.70;75.32;98046.68;1689027;84;24781;-83
2021/11/25 03:38:58;;;;;;;;;;;;;;;-0.77;75.31;98041.36;1695560;83;20225;-84
2021/11/25 03:41:24;;;;;;;;;;;;;;;-0.81;75.35;98041.47;1696901;82;26087;-84
2021/11/25 03:43:51;;;;;;;;;;;;;;;-0.87;75.34;98038.20;1681438;84;24725;-84
2021/11/25 03:46:18;;;;;;;;;;;;;;;-0.81;75.38;98034.61;1613302;87;20222;-84
2021/11/25 03:48:44;;;;;;;;;;;;;;;-0.71;75.50;98029.58;1615790;87;24868;-84
2021/11/25 03:51:11;;;;;;;;;;;;;;;-0.70;75.57;98035.56;1653980;84;22017;-84
2021/11/25 03:53:39;;;;;;;;;;;;;;;-0.72;75.62;98033.50;1657946;84;26081;-84
2021/11/25 03:56:05;;;;;;;;;;;;;;;-0.72;75.68;98029.65;1633813;86;24522;-84
2021/11/25 03:58:36;;;;;;;;;;;;;;;-0.62;75.75;98027.18;1634827;85;20305;-84
2021/11/25 04:00:59;;;;;;;;;;;;;;;-0.53;75.84;98020.02;1659270;84;24697;-84
2021/11/25 04:03:25;;;;;;;;;;;;;;;-0.58;75.90;98026.19;1636712;86;21977;-84
2021/11/25 04:05:52;;;;;;;;;;;;;;;-0.61;75.92;98017.30;1623032;87;21176;-84
2021/11/25 04:08:18;;;;;;;;;;;;;;;-0.46;76.00;98015.52;1622827;86;25327;-84
2021/11/25 04:10:44;;;;;;;;;;;;;;;-0.32;76.06;98008.62;1611258;86;20256;-84
2021/11/25 04:13:10;;;;;;;;;;;;;;;-0.27;76.13;98000.34;1630189;87;20865;-84
2021/11/25 04:15:39;;;;;;;;;;;;;;;-0.20;76.21;97998.78;1618481;86;22709;-84
2021/11/25 04:18:05;;;;;;;;;;;;;;;-0.14;76.26;97999.02;1617266;87;26169;-84
2021/11/25 04:20:31;;;;;;;;;;;;;;;-0.19;76.26;98000.46;1623077;87;20242;-84
2021/11/25 04:22:58;;;;;;;;;;;;;;;-0.24;76.26;97997.20;1617939;86;20860;-84
2021/11/25 04:25:24;;;;;;;;;;;;;;;-0.34;76.22;97995.00;1688459;83;24897;-84
2021/11/25 04:27:50;;;;;;;;;;;;;;;-0.42;76.17;98001.67;1667334;84;21893;-84
2021/11/25 04:35:33;;;;;;;;;;;;;;;-0.69;76.00;97991.00;1689202;83;20472;-84
2021/11/25 04:38:02;;;;;;;;;;;;;;;-0.67;75.98;97986.22;1697108;82;24859;-84
2021/11/25 04:40:29;;;;;;;;;;;;;;;-0.67;75.98;97986.66;1695693;82;22141;-83
2021/11/25 04:42:55;;;;;;;;;;;;;;;-0.77;75.96;97979.70;1717609;82;26125;-83
2021/11/25 04:45:21;;;;;;;;;;;;;;;-0.89;75.92;97976.23;1690207;82;20300;-83
2021/11/25 04:47:47;;;;;;;;;;;;;;;-0.91;75.91;97969.02;1694008;82;20320;-85
2021/11/25 04:50:14;;;;;;;;;;;;;;;-0.76;75.93;97970.27;1687051;84;20743;-86
2021/11/25 04:52:40;;;;;;;;;;;;;;;-0.73;75.96;97959.44;1679436;83;22263;-83
2021/11/25 04:55:07;;;;;;;;;;;;;;;-0.62;76.00;97966.36;1698889;82;25984;-83
2021/11/25 04:57:33;;;;;;;;;;;;;;;-0.57;76.05;97957.20;1695889;82;24427;-83
2021/11/25 04:59:59;;;;;;;;;;;;;;;-0.53;76.11;97950.63;1691082;82;20250;-84
2021/11/25 05:02:25;;;;;;;;;;;;;;;-0.47;76.17;97959.42;1698314;82;20874;-83
2021/11/25 05:04:51;;;;;;;;;;;;;;;-0.58;76.16;97951.67;1686046;82;21946;-83
2021/11/25 05:07:17;;;;;;;;;;;;;;;-0.66;76.14;97953.66;1685568;82;26111;-83
2021/11/25 05:09:43;;;;;;;;;;;;;;;-0.65;76.14;97948.45;1661213;84;20301;-83
2021/11/25 05:12:09;;;;;;;;;;;;;;;-0.54;76.17;97941.23;1693921;82;20288;-83
2021/11/25 05:14:35;;;;;;;;;;;;;;;-0.49;76.20;97938.05;1690242;82;24754;-83
2021/11/25 05:17:01;;;;;;;;;;;;;;;-0.44;76.22;97934.88;1692320;82;20269;-84
2021/11/25 05:19:27;;;;;;;;;;;;;;;-0.40;76.23;97934.36;1700214;83;21155;-84
2021/11/25 05:21:53;;;;;;;;;;;;;;;-0.40;76.25;97936.08;1694983;83;25269;-84
2021/11/25 05:24:19;;;;;;;;;;;;;;;-0.40;76.27;97933.52;1693336;83;20218;-84
2021/11/25 05:26:45;;;;;;;;;;;;;;;-0.40;76.26;97936.08;1690984;82;20245;-83
2021/11/25 05:29:11;;;;;;;;;;;;;;;-0.48;76.23;97933.31;1682258;82;21997;-84
2021/11/25 05:31:37;;;;;;;;;;;;;;;-0.47;76.21;97930.30;1694129;83;26899;-84
2021/11/25 05:34:05;;;;;;;;;;;;;;;-0.58;76.19;97921.67;1666175;82;20302;-84
2021/11/25 05:36:31;;;;;;;;;;;;;;;-0.65;76.17;97927.05;1687299;83;20900;-84
2021/11/25 05:38:57;;;;;;;;;;;;;;;-0.65;76.14;97921.92;1679828;83;24753;-83
2021/11/25 05:41:23;;;;;;;;;;;;;;;-0.57;76.19;97918.66;1701539;82;20875;-84
2021/11/25 05:43:49;;;;;;;;;;;;;;;-0.56;76.20;97923.76;1697488;83;21195;-84
2021/11/25 05:46:15;;;;;;;;;;;;;;;-0.50;76.23;97918.86;1691021;82;20368;-84
2021/11/25 05:48:42;;;;;;;;;;;;;;;-0.54;76.27;97924.97;1677501;84;20248;-84
2021/11/25 05:51:07;;;;;;;;;;;;;;;-0.49;76.32;97927.78;1698223;82;20695;-84
2021/11/25 05:53:35;;;;;;;;;;;;;;;-0.42;76.34;97927.97;1682728;84;22136;-84
2021/11/25 05:56:01;;;;;;;;;;;;;;;-0.37;76.42;97934.68;1696405;82;26215;-84
2021/11/25 05:58:27;;;;;;;;;;;;;;;-0.42;76.42;97925.41;1686751;82;25149;-84
2021/11/25 06:00:53;;;;;;;;;;;;;;;-0.37;76.45;97926.52;1695235;82;20294;-84
2021/11/25 06:03:19;;;;;;;;;;;;;;;-0.32;76.48;97929.77;1695338;82;20288;-84
2021/11/25 06:05:45;;;;;;;;;;;;;;;-0.26;76.53;97921.84;1698521;82;22101;-84
2021/11/25 06:08:11;;;;;;;;;;;;;;;-0.29;76.53;97932.25;1687747;82;21172;-84
2021/11/25 06:10:37;;;;;;;;;;;;;;;-0.33;76.56;97927.28;1686634;83;20261;-84
2021/11/25 06:13:03;;;;;;;;;;;;;;;-0.28;76.58;97925.39;1692286;83;20567;-84
2021/11/25 06:15:29;;;;;;;;;;;;;;;-0.20;76.61;97928.51;1697882;82;20259;-84
2021/11/25 06:17:55;;;;;;;;;;;;;;;-0.17;76.61;97916.41;1684769;83;22183;-84
2021/11/25 06:20:27;;;;;;;;;;;;;;;-0.23;76.64;97930.76;1696587;82;26724;-84
2021/11/25 06:22:54;;;;;;;;;;;;;;;-0.20;76.66;97924.21;1686751;84;24476;-84
2021/11/25 06:25:22;;;;;;;;;;;;;;;-0.22;76.67;97925.17;1695757;82;20211;-84
2021/11/25 06:27:50;;;;;;;;;;;;;;;-0.32;76.66;97929.77;1684685;83;20288;-84
2021/11/25 06:30:16;;;;;;;;;;;;;;;-0.31;76.67;97922.91;1694448;82;21861;-84
2021/11/25 06:32:44;;;;;;;;;;;;;;;-0.25;76.71;97925.27;1684830;84;21798;-84
2021/11/25 06:35:11;;;;;;;;;;;;;;;-0.32;76.70;97925.92;1691142;83;24477;-84
2021/11/25 06:37:38;;;;;;;;;;;;;;;-0.32;76.70;97919.49;1691707;83;20167;-84
2021/11/25 06:40:06;;;;;;;;;;;;;;;-0.37;76.67;97911.10;1691691;82;24773;-84
2021/11/25 06:42:32;;;;;;;;;;;;;;;-0.46;76.66;97911.43;1691039;83;22751;-83
2021/11/25 06:44:58;;;;;;;;;;;;;;;-0.54;76.60;97906.98;1690753;82;26117;-84
2021/11/25 06:47:24;;;;;;;;;;;;;;;-0.56;76.61;97903.64;1687358;83;20493;-84
2021/11/25 06:49:50;;;;;;;;;;;;;;;-0.55;76.62;97915.16;1683746;83;20202;-84
2021/11/25 06:52:16;;;;;;;;;;;;;;;-0.46;76.63;97912.72;1693362;82;20401;-84
2021/11/25 06:54:42;;;;;;;;;;;;;;;-0.38;76.69;97911.98;1698758;82;20910;-84
2021/11/25 06:57:08;;;;;;;;;;;;;;;-0.33;76.72;97907.55;1682835;83;21301;-84
2021/11/25 06:59:34;;;;;;;;;;;;;;;-0.36;76.75;97901.66;1699085;83;24450;-84
2021/11/25 07:02:04;;;;;;;;;;;;;;;-0.37;76.75;97900.81;1665567;83;20215;-85
2021/11/25 07:04:30;;;;;;;;;;;;;;;-0.27;76.77;97894.45;1694329;82;24865;-84
2021/11/25 07:06:56;;;;;;;;;;;;;;;-0.36;76.78;97897.36;1694772;83;21977;-84
2021/11/25 07:09:22;;;;;;;;;;;;;;;-0.35;76.78;97890.05;1690658;82;21882;-84
2021/11/25 07:11:48;;;;;;;;;;;;;;;-0.35;76.79;97889.20;1689638;83;24714;-84
2021/11/25 07:14:14;;;;;;;;;;;;;;;-0.37;76.82;97889.25;1690238;82;20593;-84
2021/11/25 07:16:40;;;;;;;;;;;;;;;-0.32;76.83;97892.94;1690747;83;25306;-84
2021/11/25 07:19:06;;;;;;;;;;;;;;;-0.37;76.82;97899.98;1694045;82;22068;-84
2021/11/25 07:21:32;;;;;;;;;;;;;;;-0.47;76.81;97904.16;1686064;84;26030;-84
2021/11/25 07:23:58;;;;;;;;;;;;;;;-0.51;76.80;97895.33;1693546;82;24411;-84
2021/11/25 07:26:24;;;;;;;;;;;;;;;-0.52;76.79;97893.64;1699336;82;20308;-84
2021/11/25 07:28:50;;;;;;;;;;;;;;;-0.52;76.83;97895.77;1698715;82;24789;-84
2021/11/25 07:31:16;;;;;;;;;;;;;;;-0.41;76.88;97888.97;1691239;82;20632;-84
2021/11/25 07:33:42;;;;;;;;;;;;;;;-0.33;76.93;97890.00;1688642;82;21891;-84
2021/11/25 07:36:08;;;;;;;;;;;;;;;-0.40;76.96;97884.23;1674085;82;20245;-84
2021/11/25 07:38:35;;;;;;;;;;;;;;;-0.32;77.03;97883.95;1693432;83;20254;-84
2021/11/25 07:41:01;;;;;;;;;;;;;;;-0.40;77.05;97875.23;1693095;82;25635;-84
2021/11/25 07:43:27;;;;;;;;;;;;;;;-0.39;77.11;97878.65;1690042;82;22337;-84
2021/11/25 07:45:57;;;;;;;;;;;;;;;-0.31;77.17;97871.05;1664205;83;21138;-84
2021/11/25 07:48:23;;;;;;;;;;;;;;;-0.17;77.29;97864.14;1690499;82;24628;-84
2021/11/25 07:50:49;;;;;;;;;;;;;;;-0.06;77.42;97864.59;1698176;82;20296;-84
2021/11/25 07:53:15;;;;;;;;;;;;;;;0.09;77.58;97858.87;1691217;83;24918;-84
2021/11/25 07:55:41;;;;;;;;;;;;;;;0.24;77.73;97857.00;1668591;84;22008;-84
2021/11/25 07:58:07;;;;;;;;;;;;;;;0.35;77.89;97847.14;1675740;84;26693;-84
2021/11/25 08:00:33;;;;;;;;;;;;;;;0.48;78.04;97852.66;1683106;83;20245;-84
2021/11/25 08:03:06;;;;;;;;;;;;;;;0.55;78.16;97847.64;1690938;82;20619;-84
2021/11/25 08:05:32;;;;;;;;;;;;;;;0.63;78.27;97843.48;1693758;82;24781;-84
2021/11/25 08:07:59;;;;;;;;;;;;;;;0.71;78.38;97840.17;1690404;82;20827;-84
2021/11/25 08:10:26;;;;;;;;;;;;;;;0.80;78.49;97835.48;1692478;83;26089;-84
2021/11/25 08:12:54;;;;;;;;;;;;;;;0.89;78.56;97828.27;1693591;83;24423;-85
2021/11/25 08:15:20;;;;;;;;;;;;;;;0.98;78.66;97827.47;1683772;83;20170;-84
2021/11/25 08:17:47;;;;;;;;;;;;;;;1.05;78.74;97824.16;1692793;83;24873;-85
2021/11/25 08:20:13;;;;;;;;;;;;;;;1.13;78.79;97815.23;1688354;83;22077;-85
2021/11/25 08:22:40;;;;;;;;;;;;;;;1.20;78.87;97817.91;1700556;83;26776;-85
2021/11/25 08:25:08;;;;;;;;;;;;;;;1.30;78.91;97823.98;1693166;83;24523;-84
2021/11/25 08:27:35;;;;;;;;;;;;;;;1.38;78.97;97820.16;1686321;83;20309;-85
2021/11/25 08:30:03;;;;;;;;;;;;;;;1.38;79.03;97808.56;1684913;83;24860;-85
2021/11/25 08:32:31;;;;;;;;;;;;;;;1.41;79.02;97814.05;1718206;82;20231;-84
2021/11/25 08:34:57;;;;;;;;;;;;;;;1.46;79.08;97806.50;1682696;83;26770;-84
2021/11/25 08:37:23;;;;;;;;;;;;;;;1.50;79.10;97806.75;1691786;83;24466;-85
2021/11/25 08:39:49;;;;;;;;;;;;;;;1.58;79.13;97798.20;1695331;83;20779;-85
2021/11/25 08:42:15;;;;;;;;;;;;;;;1.64;79.16;97797.09;1697472;83;25509;-85
2021/11/25 08:44:41;;;;;;;;;;;;;;;1.76;79.22;97800.88;1696341;82;21952;-85
2021/11/25 08:47:07;;;;;;;;;;;;;;;1.88;79.25;97799.89;1699040;82;26088;-85
2021/11/25 08:49:34;;;;;;;;;;;;;;;1.96;79.30;97799.09;1696792;82;25291;-85
2021/11/25 08:52:00;;;;;;;;;;;;;;;2.07;79.34;97794.25;1681255;82;20262;-84
2021/11/25 08:54:26;;;;;;;;;;;;;;;2.14;79.42;97793.97;1700969;82;24888;-85
2021/11/25 08:56:53;;;;;;;;;;;;;;;2.21;79.45;97790.20;1698616;82;22090;-85
2021/11/25 08:59:19;;;;;;;;;;;;;;;2.34;79.49;97790.03;1694424;83;25541;-85
2021/11/25 09:01:45;;;;;;;;;;;;;;;2.48;79.53;97774.70;1691968;82;24526;-85
2021/11/25 09:04:11;;;;;;;;;;;;;;;2.59;79.59;97776.77;1689014;82;20248;-85
2021/11/25 09:06:37;;;;;;;;;;;;;;;2.67;79.60;97768.20;1689912;82;24763;-85
2021/11/25 09:09:04;;;;;;;;;;;;;;;2.71;79.63;97761.97;1705360;83;22035;-85
2021/11/25 09:11:30;;;;;;;;;;;;;;;2.81;79.65;97762.73;1695522;82;26337;-85
2021/11/25 09:13:56;;;;;;;;;;;;;;;2.92;79.68;97755.73;1696669;82;24215;-85
2021/11/25 09:16:22;;;;;;;;;;;;;;;2.96;79.70;97750.78;1699335;83;20296;-85
2021/11/25 09:18:48;;;;;;;;;;;;;;;2.98;79.68;97741.67;1692575;82;24748;-85
2021/11/25 09:21:14;;;;;;;;;;;;;;;3.03;79.68;97736.65;1698094;82;22005;-85
2021/11/25 09:23:41;;;;;;;;;;;;;;;3.08;79.66;97737.25;1690156;83;21016;-85
2021/11/25 09:26:07;;;;;;;;;;;;;;;3.16;79.65;97734.28;1685846;82;24469;-85
2021/11/25 09:28:35;;;;;;;;;;;;;;;3.26;79.66;97725.13;1682336;83;20292;-85
2021/11/25 09:31:01;;;;;;;;;;;;;;;3.36;79.69;97721.15;1687366;83;24964;-85
2021/11/25 09:33:27;;;;;;;;;;;;;;;3.45;79.70;97716.78;1696852;82;22784;-85
2021/11/25 09:35:53;;;;;;;;;;;;;;;3.53;79.71;97721.10;1693302;82;25993;-85
2021/11/25 09:38:20;;;;;;;;;;;;;;;3.59;79.73;97727.25;1685273;83;20320;-85
2021/11/25 09:40:48;;;;;;;;;;;;;;;3.67;79.75;97724.23;1694782;82;20250;-85
2021/11/25 09:43:20;;;;;;;;;;;;;;;3.79;79.78;97717.95;1694287;83;24812;-86
2021/11/25 09:45:49;;;;;;;;;;;;;;;3.85;79.80;97714.19;1692019;82;22126;-86
2021/11/25 09:48:12;;;;;;;;;;;;;;;3.96;79.84;97708.42;1695308;82;26068;-85
2021/11/25 09:50:40;;;;;;;;;;;;;;;4.04;79.87;97687.66;1698197;83;25430;-86
2021/11/25 09:53:08;;;;;;;;;;;;;;;4.12;79.87;97682.91;1688012;83;20538;-85
2021/11/25 09:55:37;;;;;;;;;;;;;;;4.25;79.90;97681.77;1702223;82;24782;-86
2021/11/25 09:58:04;;;;;;;;;;;;;;;4.40;79.93;97676.16;1701897;82;22764;-85
2021/11/25 10:00:32;;;;;;;;;;;;;;;4.55;79.96;97667.05;1699929;82;25977;-86
2021/11/25 10:02:59;;;;;;;;;;;;;;;4.61;79.96;97663.27;1692445;84;24382;-87
2021/11/25 10:05:25;;;;;;;;;;;;;;;4.64;79.98;97654.84;1696675;82;20294;-86
2021/11/25 10:07:51;;;;;;;;;;;;;;;4.75;79.99;97653.37;1693061;82;25008;-86
2021/11/25 10:10:24;;;;;;;;;;;;;;;4.82;79.97;97643.02;1690583;83;21992;-86
2021/11/25 10:12:50;;;;;;;;;;;;;;;4.85;79.95;97641.09;1698352;83;26963;-86
2021/11/25 10:15:33;;;;;;;;;;;;;;;4.88;79.90;97638.31;1675175;83;24474;-86
2021/11/25 10:18:00;;;;;;;;;;;;;;;4.87;79.86;97635.34;1663901;83;20232;-86
2021/11/25 10:20:27;;;;;;;;;;;;;;;4.88;79.77;97630.53;1689033;83;25056;-86
2021/11/25 10:22:57;;;;;;;;;;;;;;;4.94;79.74;97641.00;1693598;82;22007;-86
2021/11/25 10:25:23;;;;;;;;;;;;;;;4.98;79.70;97640.72;1695761;83;26107;-86
2021/11/25 10:27:49;;;;;;;;;;;;;;;5.03;79.68;97639.14;1677617;83;24452;-86
2021/11/25 10:30:17;;;;;;;;;;;;;;;5.09;79.63;97634.05;1682010;83;20304;-86
2021/11/25 10:32:59;;;;;;;;;;;;;;;5.12;79.59;97624.34;1664375;83;24708;-86
2021/11/25 10:35:31;;;;;;;;;;;;;;;5.16;79.53;97616.73;1690942;83;22017;-85
2021/11/25 10:40:35;;;;;;;;;;;;;;;5.25;79.45;97621.35;1695280;84;24468;-85
2021/11/25 10:43:18;;;;;;;;;;;;;;;5.34;79.44;97610.89;1682637;83;20242;-86
2021/11/25 10:45:45;;;;;;;;;;;;;;;5.38;79.41;97597.63;1695497;82;24744;-86
2021/11/25 10:48:11;;;;;;;;;;;;;;;5.46;79.41;97598.42;1698367;82;22092;-85
2021/11/25 10:50:37;;;;;;;;;;;;;;;5.57;79.39;97594.70;1700005;82;21145;-87
2021/11/25 10:53:12;;;;;;;;;;;;;;;5.70;79.40;97594.30;1701713;82;24856;-86
2021/11/25 10:55:37;;;;;;;;;;;;;;;5.82;79.42;97592.69;1672880;82;20237;-86
2021/11/25 10:58:06;;;;;;;;;;;;;;;5.98;79.40;97598.59;1693169;82;25414;-86
2021/11/25 11:00:36;;;;;;;;;;;;;;;6.14;79.43;97590.63;1695630;82;23220;-86
2021/11/25 11:03:07;;;;;;;;;;;;;;;6.28;79.46;97591.38;1697927;82;26036;-86
2021/11/25 11:05:47;;;;;;;;;;;;;;;6.45;79.47;97595.45;1696779;82;24471;-86
2021/11/25 11:08:13;;;;;;;;;;;;;;;6.59;79.45;97578.95;1699484;82;20224;-84
2021/11/25 11:10:41;;;;;;;;;;;;;;;6.74;79.44;97580.51;1701630;82;24816;-83
2021/11/25 11:15:53;;;;;;;;;;;;;;;6.96;79.31;97573.37;1693838;83;26015;-84
2021/11/25 11:20:48;;;;;;;;;;;;;;;7.12;79.15;97563.56;1695341;83;20384;-83
2021/11/25 11:23:14;;;;;;;;;;;;;;;7.11;78.97;97552.32;1685222;82;25024;-83
2021/11/25 11:25:42;;;;;;;;;;;;;;;7.10;78.81;97548.05;1689341;82;22161;-83
2021/11/25 11:28:09;;;;;;;;;;;;;;;7.05;78.65;97534.53;1722475;82;25911;-84
2021/11/25 11:30:35;;;;;;;;;;;;;;;7.01;78.45;97536.16;1700321;83;24451;-83
2021/11/25 11:33:03;;;;;;;;;;;;;;;6.95;78.22;97519.22;1692406;82;20492;-83
2021/11/25 11:35:29;;;;;;;;;;;;;;;6.91;77.99;97500.87;1690635;82;25551;-83
2021/11/25 11:37:56;;;;;;;;;;;;;;;6.86;77.80;97496.46;1692476;82;20834;-83
2021/11/25 11:40:26;;;;;;;;;;;;;;;6.86;77.65;97493.86;1688397;83;26057;-84
2021/11/25 11:42:54;;;;;;;;;;;;;;;6.82;77.51;97481.98;1702892;82;24503;-83
2021/11/25 11:45:22;;;;;;;;;;;;;;;6.78;77.36;97487.05;1698313;82;20341;-83
2021/11/25 11:47:54;;;;;;;;;;;;;;;6.85;77.26;97485.69;1692259;83;22134;-83
2021/11/25 11:50:28;;;;;;;;;;;;;;;6.88;77.16;97469.86;1690020;83;22339;-83
2021/11/25 11:52:58;;;;;;;;;;;;;;;6.92;77.07;97469.19;1686696;83;25993;-84
2021/11/25 11:55:35;;;;;;;;;;;;;;;6.95;76.96;97470.27;1696341;83;24459;-84
2021/11/25 11:58:00;;;;;;;;;;;;;;;6.97;76.88;97469.70;1701076;82;20209;-84
2021/11/25 12:00:29;;;;;;;;;;;;;;;7.02;76.78;97467.12;1733606;81;24755;-84
2021/11/25 12:02:56;;;;;;;;;;;;;;;7.14;76.71;97455.86;1685712;84;22217;-84
2021/11/25 12:05:46;;;;;;;;;;;;;;;7.24;76.67;97456.02;1684864;83;26255;-84
2021/11/25 12:08:28;;;;;;;;;;;;;;;7.29;76.58;97447.87;1684867;82;24446;-84
2021/11/25 12:10:58;;;;;;;;;;;;;;;7.37;76.43;97448.14;1696253;83;20174;-83
2021/11/25 12:13:30;;;;;;;;;;;;;;;7.40;76.24;97436.22;1698071;82;24844;-83
2021/11/25 12:16:12;;;;;;;;;;;;;;;7.41;76.11;97432.68;1682207;82;22080;-85
2021/11/25 12:18:38;;;;;;;;;;;;;;;7.37;75.96;97415.60;1696759;83;26036;-83
2021/11/25 12:21:04;;;;;;;;;;;;;;;7.27;75.73;97414.16;1695131;82;24449;-84
2021/11/25 12:23:34;;;;;;;;;;;;;;;7.17;75.55;97404.05;1696731;83;20253;-83
2021/11/25 12:26:01;;;;;;;;;;;;;;;7.09;75.34;97407.20;1676881;83;24802;-84
2021/11/25 12:28:29;;;;;;;;;;;;;;;7.00;75.18;97403.14;1690447;83;22818;-85
2021/11/25 12:31:07;;;;;;;;;;;;;;;6.93;75.03;97403.20;1687776;83;26897;-84
2021/11/25 12:33:28;;;;;;;;;;;;;;;6.86;74.90;97398.11;1682106;82;24534;-84
2021/11/25 12:36:00;;;;;;;;;;;;;;;6.83;74.80;97404.34;1671442;84;20567;-84
2021/11/25 12:38:25;;;;;;;;;;;;;;;6.84;74.75;97411.67;1683434;83;24877;-84
2021/11/25 12:40:57;;;;;;;;;;;;;;;6.82;74.69;97409.17;1687349;83;22214;-84
2021/11/25 12:43:25;;;;;;;;;;;;;;;6.81;74.65;97407.54;1693802;82;26009;-84
2021/11/25 12:45:56;;;;;;;;;;;;;;;6.81;74.61;97401.04;1704267;82;24474;-84
2021/11/25 12:48:23;;;;;;;;;;;;;;;6.83;74.58;97406.11;1670468;83;20191;-83
2021/11/25 12:50:53;;;;;;;;;;;;;;;6.85;74.54;97401.17;1715529;82;26215;-84
2021/11/25 12:53:33;;;;;;;;;;;;;;;6.90;74.56;97406.88;1688885;83;22598;-84
2021/11/25 12:56:01;;;;;;;;;;;;;;;7.00;74.57;97397.47;1700010;82;25915;-84
2021/11/25 12:58:35;;;;;;;;;;;;;;;7.18;74.65;97390.58;1700305;82;25372;-84
2021/11/25 13:01:01;;;;;;;;;;;;;;;7.31;74.69;97393.46;1684795;84;20186;-84
2021/11/25 13:03:28;;;;;;;;;;;;;;;7.36;74.71;97385.34;1696451;82;24844;-84
2021/11/25 13:05:56;;;;;;;;;;;;;;;7.39;74.70;97386.41;1697290;83;22077;-83